sensor_id;sensor_type;location;lat;lon;timestamp;P1;durP1;ratioP1;P2;durP2;ratioP2
12844;SDS011;68700;48.534;9.196;2023-05-15T00:00:40;12.07;;;8.57;;
12844;SDS011;68700;48.534;9.196;2023-05-15T00:04:03;8.83;;;7.77;;
12844;SDS011;68700;48.534;9.196;2023-05-15T00:07:25;8.30;;;7.50;;
12844;SDS011;68700;48.534;9.196;2023-05-15T00:10:48;7.97;;;7.17;;
12844;SDS011;68700;48.534;9.196;2023-05-15T00:14:10;7.53;;;6.80;;
12844;SDS011;68700;48.534;9.196;2023-05-15T00:17:32;7.50;;;6.80;;
12844;SDS011;68700;48.534;9.196;2023-05-15T00:20:54;8.83;;;7.47;;
12844;SDS011;68700;48.534;9.196;2023-05-15T00:24:15;7.87;;;7.07;;
12844;SDS011;68700;48.534;9.196;2023-05-15T00:27:39;8.57;;;7.23;;
12844;SDS011;68700;48.534;9.196;2023-05-15T00:31:00;7.83;;;6.97;;
12844;SDS011;68700;48.534;9.196;2023-05-15T00:34:23;8.43;;;7.50;;
12844;SDS011;68700;48.534;9.196;2023-05-15T00:37:44;7.50;;;6.77;;
12844;SDS011;68700;48.534;9.196;2023-05-15T00:41:07;8.40;;;7.00;;
12844;SDS011;68700;48.534;9.196;2023-05-15T00:44:44;7.10;;;6.27;;
12844;SDS011;68700;48.534;9.196;2023-05-15T00:48:07;7.80;;;6.97;;
12844;SDS011;68700;48.534;9.196;2023-05-15T00:51:30;10.87;;;7.57;;
12844;SDS011;68700;48.534;9.196;2023-05-15T00:54:51;7.50;;;6.80;;
12844;SDS011;68700;48.534;9.196;2023-05-15T00:58:13;7.60;;;6.80;;
12844;SDS011;68700;48.534;9.196;2023-05-15T01:01:38;7.67;;;6.97;;
12844;SDS011;68700;48.534;9.196;2023-05-15T01:05:00;7.10;;;6.43;;
12844;SDS011;68700;48.534;9.196;2023-05-15T01:08:25;7.80;;;7.00;;
12844;SDS011;68700;48.534;9.196;2023-05-15T01:11:52;11.10;;;8.37;;
12844;SDS011;68700;48.534;9.196;2023-05-15T01:15:15;8.93;;;8.03;;
12844;SDS011;68700;48.534;9.196;2023-05-15T01:18:38;9.67;;;8.40;;
12844;SDS011;68700;48.534;9.196;2023-05-15T01:26:01;10.10;;;9.00;;
12844;SDS011;68700;48.534;9.196;2023-05-15T01:29:50;12.90;;;9.00;;
12844;SDS011;68700;48.534;9.196;2023-05-15T01:33:20;9.73;;;8.73;;
12844;SDS011;68700;48.534;9.196;2023-05-15T01:36:47;11.33;;;9.60;;
12844;SDS011;68700;48.534;9.196;2023-05-15T01:40:12;10.03;;;8.63;;
12844;SDS011;68700;48.534;9.196;2023-05-15T01:43:37;11.90;;;9.33;;
12844;SDS011;68700;48.534;9.196;2023-05-15T01:47:06;9.30;;;8.37;;
12844;SDS011;68700;48.534;9.196;2023-05-15T01:50:33;11.10;;;8.93;;
12844;SDS011;68700;48.534;9.196;2023-05-15T01:53:55;9.73;;;8.17;;
12844;SDS011;68700;48.534;9.196;2023-05-15T01:57:19;12.87;;;9.47;;
12844;SDS011;68700;48.534;9.196;2023-05-15T02:00:43;10.33;;;9.07;;
12844;SDS011;68700;48.534;9.196;2023-05-15T02:04:08;9.53;;;8.53;;
12844;SDS011;68700;48.534;9.196;2023-05-15T02:07:31;9.80;;;7.97;;
12844;SDS011;68700;48.534;9.196;2023-05-15T02:10:53;9.60;;;8.60;;
12844;SDS011;68700;48.534;9.196;2023-05-15T02:14:16;10.23;;;9.00;;
12844;SDS011;68700;48.534;9.196;2023-05-15T02:17:39;9.60;;;8.60;;
12844;SDS011;68700;48.534;9.196;2023-05-15T02:21:02;9.80;;;8.27;;
12844;SDS011;68700;48.534;9.196;2023-05-15T02:24:24;8.47;;;7.50;;
12844;SDS011;68700;48.534;9.196;2023-05-15T02:27:47;8.90;;;7.57;;
12844;SDS011;68700;48.534;9.196;2023-05-15T02:31:17;10.00;;;8.03;;
12844;SDS011;68700;48.534;9.196;2023-05-15T02:34:44;8.53;;;7.27;;
12844;SDS011;68700;48.534;9.196;2023-05-15T02:38:14;8.90;;;7.60;;
12844;SDS011;68700;48.534;9.196;2023-05-15T02:41:37;10.17;;;8.17;;
12844;SDS011;68700;48.534;9.196;2023-05-15T02:45:00;8.80;;;7.60;;
12844;SDS011;68700;48.534;9.196;2023-05-15T02:48:23;9.67;;;8.67;;
12844;SDS011;68700;48.534;9.196;2023-05-15T02:51:46;9.07;;;8.17;;
12844;SDS011;68700;48.534;9.196;2023-05-15T02:55:10;8.40;;;7.60;;
12844;SDS011;68700;48.534;9.196;2023-05-15T02:58:31;8.97;;;7.93;;
12844;SDS011;68700;48.534;9.196;2023-05-15T03:01:54;9.00;;;8.17;;
12844;SDS011;68700;48.534;9.196;2023-05-15T03:05:16;10.83;;;8.13;;
12844;SDS011;68700;48.534;9.196;2023-05-15T03:08:37;8.37;;;7.47;;
12844;SDS011;68700;48.534;9.196;2023-05-15T03:12:01;8.83;;;7.77;;
12844;SDS011;68700;48.534;9.196;2023-05-15T03:15:23;9.03;;;8.13;;
12844;SDS011;68700;48.534;9.196;2023-05-15T03:18:45;8.73;;;7.93;;
12844;SDS011;68700;48.534;9.196;2023-05-15T03:22:07;7.90;;;7.10;;
12844;SDS011;68700;48.534;9.196;2023-05-15T03:25:28;8.67;;;7.60;;
12844;SDS011;68700;48.534;9.196;2023-05-15T03:28:52;8.17;;;7.10;;
12844;SDS011;68700;48.534;9.196;2023-05-15T03:32:13;7.53;;;6.80;;
12844;SDS011;68700;48.534;9.196;2023-05-15T03:35:35;8.90;;;8.10;;
12844;SDS011;68700;48.534;9.196;2023-05-15T03:38:57;8.67;;;7.47;;
12844;SDS011;68700;48.534;9.196;2023-05-15T03:42:19;9.23;;;7.90;;
12844;SDS011;68700;48.534;9.196;2023-05-15T03:45:44;8.50;;;7.37;;
12844;SDS011;68700;48.534;9.196;2023-05-15T03:49:06;9.53;;;7.40;;
12844;SDS011;68700;48.534;9.196;2023-05-15T03:52:27;9.83;;;8.00;;
12844;SDS011;68700;48.534;9.196;2023-05-15T03:55:49;11.57;;;8.47;;
12844;SDS011;68700;48.534;9.196;2023-05-15T03:59:11;9.37;;;8.30;;
12844;SDS011;68700;48.534;9.196;2023-05-15T04:02:34;8.87;;;8.00;;
12844;SDS011;68700;48.534;9.196;2023-05-15T04:05:56;9.23;;;8.00;;
12844;SDS011;68700;48.534;9.196;2023-05-15T04:09:18;9.23;;;8.33;;
12844;SDS011;68700;48.534;9.196;2023-05-15T04:12:40;8.27;;;7.17;;
12844;SDS011;68700;48.534;9.196;2023-05-15T04:16:02;9.07;;;7.63;;
12844;SDS011;68700;48.534;9.196;2023-05-15T04:19:25;9.37;;;8.43;;
12844;SDS011;68700;48.534;9.196;2023-05-15T04:22:47;8.63;;;7.27;;
12844;SDS011;68700;48.534;9.196;2023-05-15T04:26:09;8.37;;;7.53;;
12844;SDS011;68700;48.534;9.196;2023-05-15T04:29:31;9.00;;;7.93;;
12844;SDS011;68700;48.534;9.196;2023-05-15T04:32:53;9.00;;;7.63;;
12844;SDS011;68700;48.534;9.196;2023-05-15T04:36:16;9.30;;;8.00;;
12844;SDS011;68700;48.534;9.196;2023-05-15T04:39:38;8.83;;;7.93;;
12844;SDS011;68700;48.534;9.196;2023-05-15T04:42:59;8.30;;;7.50;;
12844;SDS011;68700;48.534;9.196;2023-05-15T04:46:23;8.20;;;7.40;;
12844;SDS011;68700;48.534;9.196;2023-05-15T04:49:44;9.40;;;7.93;;
12844;SDS011;68700;48.534;9.196;2023-05-15T04:53:08;8.23;;;7.43;;
12844;SDS011;68700;48.534;9.196;2023-05-15T04:56:30;9.50;;;7.80;;
12844;SDS011;68700;48.534;9.196;2023-05-15T04:59:52;8.70;;;7.37;;
12844;SDS011;68700;48.534;9.196;2023-05-15T05:03:14;8.15;;;7.43;;
12844;SDS011;68700;48.534;9.196;2023-05-15T05:06:36;8.20;;;7.40;;
12844;SDS011;68700;48.534;9.196;2023-05-15T05:10:00;8.27;;;7.37;;
12844;SDS011;68700;48.534;9.196;2023-05-15T05:13:22;8.00;;;7.03;;
12844;SDS011;68700;48.534;9.196;2023-05-15T05:16:44;7.50;;;6.80;;
12844;SDS011;68700;48.534;9.196;2023-05-15T05:20:06;7.53;;;6.73;;
12844;SDS011;68700;48.534;9.196;2023-05-15T05:23:29;7.40;;;6.67;;
12844;SDS011;68700;48.534;9.196;2023-05-15T05:26:53;7.97;;;6.63;;
12844;SDS011;68700;48.534;9.196;2023-05-15T05:30:17;8.23;;;6.90;;
12844;SDS011;68700;48.534;9.196;2023-05-15T05:33:39;7.43;;;6.67;;
12844;SDS011;68700;48.534;9.196;2023-05-15T05:37:01;7.00;;;6.30;;
12844;SDS011;68700;48.534;9.196;2023-05-15T05:40:23;8.13;;;7.00;;
12844;SDS011;68700;48.534;9.196;2023-05-15T05:43:46;6.70;;;6.10;;
12844;SDS011;68700;48.534;9.196;2023-05-15T05:47:08;7.27;;;6.10;;
12844;SDS011;68700;48.534;9.196;2023-05-15T05:50:30;7.67;;;6.67;;
12844;SDS011;68700;48.534;9.196;2023-05-15T05:53:51;6.57;;;5.97;;
12844;SDS011;68700;48.534;9.196;2023-05-15T05:57:13;7.90;;;6.40;;
12844;SDS011;68700;48.534;9.196;2023-05-15T06:00:37;8.03;;;6.20;;
12844;SDS011;68700;48.534;9.196;2023-05-15T06:03:58;7.17;;;6.10;;
12844;SDS011;68700;48.534;9.196;2023-05-15T06:07:20;6.50;;;5.77;;
12844;SDS011;68700;48.534;9.196;2023-05-15T06:10:42;5.93;;;5.20;;
12844;SDS011;68700;48.534;9.196;2023-05-15T06:14:04;6.13;;;5.53;;
12844;SDS011;68700;48.534;9.196;2023-05-15T06:17:28;7.37;;;5.90;;
12844;SDS011;68700;48.534;9.196;2023-05-15T06:20:50;6.10;;;5.50;;
12844;SDS011;68700;48.534;9.196;2023-05-15T06:24:12;5.63;;;5.00;;
12844;SDS011;68700;48.534;9.196;2023-05-15T06:27:34;8.27;;;5.97;;
12844;SDS011;68700;48.534;9.196;2023-05-15T06:30:56;7.30;;;6.00;;
12844;SDS011;68700;48.534;9.196;2023-05-15T06:34:19;5.77;;;5.23;;
12844;SDS011;68700;48.534;9.196;2023-05-15T06:37:41;5.40;;;4.90;;
12844;SDS011;68700;48.534;9.196;2023-05-15T06:41:03;5.67;;;5.10;;
12844;SDS011;68700;48.534;9.196;2023-05-15T06:44:25;6.27;;;5.73;;
12844;SDS011;68700;48.534;9.196;2023-05-15T06:47:47;5.77;;;5.27;;
12844;SDS011;68700;48.534;9.196;2023-05-15T06:51:10;5.90;;;5.40;;
12844;SDS011;68700;48.534;9.196;2023-05-15T06:54:32;5.93;;;5.40;;
12844;SDS011;68700;48.534;9.196;2023-05-15T06:57:54;6.23;;;5.63;;
12844;SDS011;68700;48.534;9.196;2023-05-15T07:01:16;6.20;;;5.70;;
12844;SDS011;68700;48.534;9.196;2023-05-15T07:04:37;6.20;;;5.60;;
12844;SDS011;68700;48.534;9.196;2023-05-15T07:08:01;6.07;;;5.20;;
12844;SDS011;68700;48.534;9.196;2023-05-15T07:11:23;6.60;;;6.00;;
12844;SDS011;68700;48.534;9.196;2023-05-15T07:14:45;6.63;;;5.67;;
12844;SDS011;68700;48.534;9.196;2023-05-15T07:18:06;6.27;;;5.63;;
12844;SDS011;68700;48.534;9.196;2023-05-15T07:21:28;6.33;;;5.70;;
12844;SDS011;68700;48.534;9.196;2023-05-15T07:24:52;7.07;;;5.70;;
12844;SDS011;68700;48.534;9.196;2023-05-15T07:28:14;6.73;;;6.07;;
12844;SDS011;68700;48.534;9.196;2023-05-15T07:31:36;5.57;;;5.10;;
12844;SDS011;68700;48.534;9.196;2023-05-15T07:34:59;6.67;;;5.67;;
12844;SDS011;68700;48.534;9.196;2023-05-15T07:38:22;9.00;;;5.93;;
12844;SDS011;68700;48.534;9.196;2023-05-15T07:41:46;6.97;;;5.50;;
12844;SDS011;68700;48.534;9.196;2023-05-15T07:45:08;6.33;;;5.60;;
12844;SDS011;68700;48.534;9.196;2023-05-15T07:48:30;6.50;;;5.90;;
12844;SDS011;68700;48.534;9.196;2023-05-15T07:51:52;6.10;;;5.60;;
12844;SDS011;68700;48.534;9.196;2023-05-15T07:55:14;6.00;;;5.50;;
12844;SDS011;68700;48.534;9.196;2023-05-15T07:58:37;6.20;;;5.70;;
12844;SDS011;68700;48.534;9.196;2023-05-15T08:01:59;6.40;;;5.90;;
12844;SDS011;68700;48.534;9.196;2023-05-15T08:05:21;6.17;;;5.67;;
12844;SDS011;68700;48.534;9.196;2023-05-15T08:08:43;6.07;;;5.57;;
12844;SDS011;68700;48.534;9.196;2023-05-15T08:12:14;6.20;;;5.70;;
12844;SDS011;68700;48.534;9.196;2023-05-15T08:15:41;5.87;;;5.27;;
12844;SDS011;68700;48.534;9.196;2023-05-15T08:19:03;5.60;;;5.20;;
12844;SDS011;68700;48.534;9.196;2023-05-15T08:22:26;5.77;;;5.23;;
12844;SDS011;68700;48.534;9.196;2023-05-15T08:25:49;6.00;;;5.50;;
12844;SDS011;68700;48.534;9.196;2023-05-15T08:29:11;5.77;;;5.27;;
12844;SDS011;68700;48.534;9.196;2023-05-15T08:32:34;5.63;;;4.93;;
12844;SDS011;68700;48.534;9.196;2023-05-15T08:35:56;6.33;;;5.73;;
12844;SDS011;68700;48.534;9.196;2023-05-15T08:39:18;4.80;;;4.40;;
12844;SDS011;68700;48.534;9.196;2023-05-15T08:42:42;5.47;;;5.00;;
12844;SDS011;68700;48.534;9.196;2023-05-15T08:46:05;6.40;;;5.33;;
12844;SDS011;68700;48.534;9.196;2023-05-15T08:49:33;5.47;;;4.97;;
12844;SDS011;68700;48.534;9.196;2023-05-15T08:52:59;5.97;;;5.20;;
12844;SDS011;68700;48.534;9.196;2023-05-15T08:56:22;4.60;;;4.27;;
12844;SDS011;68700;48.534;9.196;2023-05-15T08:59:44;5.13;;;4.63;;
12844;SDS011;68700;48.534;9.196;2023-05-15T09:03:12;5.10;;;4.60;;
12844;SDS011;68700;48.534;9.196;2023-05-15T09:06:36;5.13;;;4.63;;
12844;SDS011;68700;48.534;9.196;2023-05-15T09:09:58;5.93;;;5.40;;
12844;SDS011;68700;48.534;9.196;2023-05-15T09:13:22;4.93;;;4.53;;
12844;SDS011;68700;48.534;9.196;2023-05-15T09:16:44;5.63;;;4.30;;
12844;SDS011;68700;48.534;9.196;2023-05-15T09:20:23;4.67;;;4.27;;
12844;SDS011;68700;48.534;9.196;2023-05-15T09:23:48;5.83;;;4.50;;
12844;SDS011;68700;48.534;9.196;2023-05-15T09:27:09;5.10;;;4.60;;
12844;SDS011;68700;48.534;9.196;2023-05-15T09:30:31;5.13;;;4.73;;
12844;SDS011;68700;48.534;9.196;2023-05-15T09:33:57;5.20;;;4.70;;
12844;SDS011;68700;48.534;9.196;2023-05-15T09:37:27;5.00;;;4.40;;
12844;SDS011;68700;48.534;9.196;2023-05-15T09:40:52;5.87;;;4.93;;
12844;SDS011;68700;48.534;9.196;2023-05-15T09:44:23;5.10;;;4.60;;
12844;SDS011;68700;48.534;9.196;2023-05-15T09:47:46;5.03;;;4.63;;
12844;SDS011;68700;48.534;9.196;2023-05-15T09:51:12;4.20;;;3.80;;
12844;SDS011;68700;48.534;9.196;2023-05-15T09:54:35;4.17;;;3.77;;
12844;SDS011;68700;48.534;9.196;2023-05-15T09:58:06;5.43;;;4.93;;
12844;SDS011;68700;48.534;9.196;2023-05-15T10:01:30;4.70;;;4.30;;
12844;SDS011;68700;48.534;9.196;2023-05-15T10:04:55;5.23;;;3.73;;
12844;SDS011;68700;48.534;9.196;2023-05-15T10:08:24;5.27;;;4.53;;
12844;SDS011;68700;48.534;9.196;2023-05-15T10:11:49;4.37;;;3.97;;
12844;SDS011;68700;48.534;9.196;2023-05-15T10:15:14;4.67;;;4.27;;
12844;SDS011;68700;48.534;9.196;2023-05-15T10:18:37;4.30;;;4.00;;
12844;SDS011;68700;48.534;9.196;2023-05-15T10:22:01;3.80;;;3.37;;
12844;SDS011;68700;48.534;9.196;2023-05-15T10:25:25;3.70;;;2.47;;
12844;SDS011;68700;48.534;9.196;2023-05-15T10:28:53;2.53;;;2.33;;
12844;SDS011;68700;48.534;9.196;2023-05-15T10:32:17;1.77;;;1.60;;
12844;SDS011;68700;48.534;9.196;2023-05-15T10:35:41;2.53;;;1.70;;
12844;SDS011;68700;48.534;9.196;2023-05-15T10:39:04;3.20;;;2.03;;
12844;SDS011;68700;48.534;9.196;2023-05-15T10:42:27;2.60;;;2.40;;
12844;SDS011;68700;48.534;9.196;2023-05-15T10:45:51;3.57;;;2.77;;
12844;SDS011;68700;48.534;9.196;2023-05-15T10:49:15;3.60;;;3.20;;
12844;SDS011;68700;48.534;9.196;2023-05-15T10:52:37;2.90;;;2.60;;
12844;SDS011;68700;48.534;9.196;2023-05-15T10:56:01;3.97;;;3.20;;
12844;SDS011;68700;48.534;9.196;2023-05-15T10:59:29;5.70;;;3.30;;
12844;SDS011;68700;48.534;9.196;2023-05-15T11:02:52;3.90;;;3.47;;
12844;SDS011;68700;48.534;9.196;2023-05-15T11:06:17;3.37;;;3.07;;
12844;SDS011;68700;48.534;9.196;2023-05-15T11:09:50;3.57;;;2.93;;
12844;SDS011;68700;48.534;9.196;2023-05-15T11:13:12;5.50;;;2.83;;
12844;SDS011;68700;48.534;9.196;2023-05-15T11:20:17;3.10;;;2.47;;
12844;SDS011;68700;48.534;9.196;2023-05-15T11:23:40;3.00;;;2.70;;
12844;SDS011;68700;48.534;9.196;2023-05-15T11:27:02;3.00;;;2.80;;
12844;SDS011;68700;48.534;9.196;2023-05-15T11:30:35;3.10;;;2.90;;
12844;SDS011;68700;48.534;9.196;2023-05-15T11:33:58;3.85;;;3.55;;
12844;SDS011;68700;48.534;9.196;2023-05-15T11:37:25;3.97;;;3.67;;
12844;SDS011;68700;48.534;9.196;2023-05-15T11:40:49;4.20;;;3.80;;
12844;SDS011;68700;48.534;9.196;2023-05-15T11:44:18;4.10;;;3.80;;
12844;SDS011;68700;48.534;9.196;2023-05-15T11:47:40;4.28;;;3.90;;
12844;SDS011;68700;48.534;9.196;2023-05-15T11:51:04;4.05;;;3.75;;
12844;SDS011;68700;48.534;9.196;2023-05-15T11:54:32;4.05;;;3.60;;
12844;SDS011;68700;48.534;9.196;2023-05-15T11:57:55;4.63;;;3.20;;
12844;SDS011;68700;48.534;9.196;2023-05-15T12:01:17;2.90;;;2.70;;
12844;SDS011;68700;48.534;9.196;2023-05-15T12:04:39;2.93;;;2.60;;
12844;SDS011;68700;48.534;9.196;2023-05-15T12:08:01;4.07;;;3.07;;
12844;SDS011;68700;48.534;9.196;2023-05-15T12:11:23;6.60;;;3.20;;
12844;SDS011;68700;48.534;9.196;2023-05-15T12:14:46;3.40;;;3.20;;
12844;SDS011;68700;48.534;9.196;2023-05-15T12:18:08;3.70;;;3.40;;
12844;SDS011;68700;48.534;9.196;2023-05-15T12:21:30;3.57;;;3.27;;
12844;SDS011;68700;48.534;9.196;2023-05-15T12:24:52;3.77;;;3.47;;
12844;SDS011;68700;48.534;9.196;2023-05-15T12:28:18;4.47;;;3.40;;
12844;SDS011;68700;48.534;9.196;2023-05-15T12:31:41;4.00;;;3.70;;
12844;SDS011;68700;48.534;9.196;2023-05-15T12:35:04;3.73;;;3.43;;
12844;SDS011;68700;48.534;9.196;2023-05-15T12:38:26;4.20;;;3.67;;
12844;SDS011;68700;48.534;9.196;2023-05-15T12:41:48;4.77;;;4.00;;
12844;SDS011;68700;48.534;9.196;2023-05-15T12:45:13;5.40;;;4.70;;
12844;SDS011;68700;48.534;9.196;2023-05-15T12:48:37;4.77;;;4.27;;
12844;SDS011;68700;48.534;9.196;2023-05-15T12:52:10;4.87;;;4.47;;
12844;SDS011;68700;48.534;9.196;2023-05-15T12:55:33;4.60;;;4.30;;
12844;SDS011;68700;48.534;9.196;2023-05-15T12:58:55;4.93;;;4.43;;
12844;SDS011;68700;48.534;9.196;2023-05-15T13:02:17;5.30;;;4.80;;
12844;SDS011;68700;48.534;9.196;2023-05-15T13:05:42;5.23;;;4.60;;
12844;SDS011;68700;48.534;9.196;2023-05-15T13:09:05;4.90;;;4.40;;
12844;SDS011;68700;48.534;9.196;2023-05-15T13:12:42;4.13;;;3.83;;
12844;SDS011;68700;48.534;9.196;2023-05-15T13:16:05;4.20;;;3.90;;
12844;SDS011;68700;48.534;9.196;2023-05-15T13:19:37;4.87;;;3.97;;
12844;SDS011;68700;48.534;9.196;2023-05-15T13:23:00;4.57;;;4.07;;
12844;SDS011;68700;48.534;9.196;2023-05-15T13:26:22;4.33;;;3.93;;
12844;SDS011;68700;48.534;9.196;2023-05-15T13:29:44;3.50;;;3.20;;
12844;SDS011;68700;48.534;9.196;2023-05-15T13:33:06;4.00;;;3.70;;
12844;SDS011;68700;48.534;9.196;2023-05-15T13:36:28;4.67;;;3.17;;
12844;SDS011;68700;48.534;9.196;2023-05-15T13:39:51;3.77;;;2.93;;
12844;SDS011;68700;48.534;9.196;2023-05-15T13:43:13;3.70;;;3.10;;
12844;SDS011;68700;48.534;9.196;2023-05-15T13:46:35;3.87;;;3.50;;
12844;SDS011;68700;48.534;9.196;2023-05-15T13:49:56;3.73;;;3.20;;
12844;SDS011;68700;48.534;9.196;2023-05-15T13:53:18;3.20;;;3.00;;
12844;SDS011;68700;48.534;9.196;2023-05-15T13:56:45;3.40;;;3.13;;
12844;SDS011;68700;48.534;9.196;2023-05-15T14:00:07;3.87;;;3.57;;
12844;SDS011;68700;48.534;9.196;2023-05-15T14:03:32;3.47;;;3.17;;
12844;SDS011;68700;48.534;9.196;2023-05-15T14:06:54;3.53;;;3.23;;
12844;SDS011;68700;48.534;9.196;2023-05-15T14:10:16;4.10;;;3.40;;
12844;SDS011;68700;48.534;9.196;2023-05-15T14:13:39;4.60;;;3.60;;
12844;SDS011;68700;48.534;9.196;2023-05-15T14:17:01;3.53;;;3.20;;
12844;SDS011;68700;48.534;9.196;2023-05-15T14:20:23;4.17;;;3.87;;
12844;SDS011;68700;48.534;9.196;2023-05-15T14:23:45;3.67;;;3.37;;
12844;SDS011;68700;48.534;9.196;2023-05-15T14:27:07;3.80;;;3.20;;
12844;SDS011;68700;48.534;9.196;2023-05-15T14:30:30;3.77;;;3.50;;
12844;SDS011;68700;48.534;9.196;2023-05-15T14:33:52;5.37;;;4.30;;
12844;SDS011;68700;48.534;9.196;2023-05-15T14:37:14;5.00;;;4.50;;
12844;SDS011;68700;48.534;9.196;2023-05-15T14:40:36;7.93;;;4.43;;
12844;SDS011;68700;48.534;9.196;2023-05-15T14:43:58;6.87;;;4.10;;
12844;SDS011;68700;48.534;9.196;2023-05-15T14:47:21;4.33;;;3.50;;
12844;SDS011;68700;48.534;9.196;2023-05-15T14:50:44;7.10;;;4.47;;
12844;SDS011;68700;48.534;9.196;2023-05-15T14:54:06;6.40;;;4.77;;
12844;SDS011;68700;48.534;9.196;2023-05-15T14:57:28;5.63;;;4.20;;
12844;SDS011;68700;48.534;9.196;2023-05-15T15:00:50;5.03;;;3.87;;
12844;SDS011;68700;48.534;9.196;2023-05-15T15:04:13;5.93;;;4.00;;
12844;SDS011;68700;48.534;9.196;2023-05-15T15:11:18;4.23;;;3.57;;
12844;SDS011;68700;48.534;9.196;2023-05-15T15:14:40;5.13;;;4.67;;
12844;SDS011;68700;48.534;9.196;2023-05-15T15:18:02;9.33;;;3.93;;
12844;SDS011;68700;48.534;9.196;2023-05-15T15:21:26;4.97;;;3.23;;
12844;SDS011;68700;48.534;9.196;2023-05-15T15:24:47;3.70;;;3.40;;
12844;SDS011;68700;48.534;9.196;2023-05-15T15:28:09;6.10;;;3.40;;
12844;SDS011;68700;48.534;9.196;2023-05-15T15:31:31;4.93;;;4.00;;
12844;SDS011;68700;48.534;9.196;2023-05-15T15:34:53;7.77;;;3.90;;
12844;SDS011;68700;48.534;9.196;2023-05-15T15:38:18;5.90;;;4.17;;
12844;SDS011;68700;48.534;9.196;2023-05-15T15:41:39;4.47;;;4.07;;
12844;SDS011;68700;48.534;9.196;2023-05-15T15:45:02;5.57;;;4.87;;
12844;SDS011;68700;48.534;9.196;2023-05-15T15:48:24;6.77;;;4.63;;
12844;SDS011;68700;48.534;9.196;2023-05-15T15:51:48;6.50;;;5.00;;
12844;SDS011;68700;48.534;9.196;2023-05-15T15:55:11;8.17;;;5.60;;
12844;SDS011;68700;48.534;9.196;2023-05-15T15:58:33;6.10;;;5.50;;
12844;SDS011;68700;48.534;9.196;2023-05-15T16:01:55;6.50;;;5.10;;
12844;SDS011;68700;48.534;9.196;2023-05-15T16:05:18;5.73;;;5.10;;
12844;SDS011;68700;48.534;9.196;2023-05-15T16:08:40;5.33;;;4.53;;
12844;SDS011;68700;48.534;9.196;2023-05-15T16:12:03;5.80;;;4.97;;
12844;SDS011;68700;48.534;9.196;2023-05-15T16:15:25;5.60;;;5.10;;
12844;SDS011;68700;48.534;9.196;2023-05-15T16:18:47;5.67;;;5.17;;
12844;SDS011;68700;48.534;9.196;2023-05-15T16:22:09;6.93;;;5.10;;
12844;SDS011;68700;48.534;9.196;2023-05-15T16:25:31;5.87;;;5.27;;
12844;SDS011;68700;48.534;9.196;2023-05-15T16:28:54;6.50;;;5.60;;
12844;SDS011;68700;48.534;9.196;2023-05-15T16:32:16;6.20;;;5.07;;
12844;SDS011;68700;48.534;9.196;2023-05-15T16:35:40;8.93;;;6.10;;
12844;SDS011;68700;48.534;9.196;2023-05-15T16:39:02;8.13;;;6.67;;
12844;SDS011;68700;48.534;9.196;2023-05-15T16:42:24;6.87;;;6.27;;
12844;SDS011;68700;48.534;9.196;2023-05-15T16:45:47;9.70;;;7.60;;
12844;SDS011;68700;48.534;9.196;2023-05-15T16:49:09;7.87;;;6.63;;
12844;SDS011;68700;48.534;9.196;2023-05-15T16:52:31;8.73;;;6.37;;
12844;SDS011;68700;48.534;9.196;2023-05-15T16:55:53;7.53;;;6.77;;
12844;SDS011;68700;48.534;9.196;2023-05-15T16:59:14;8.33;;;7.30;;
12844;SDS011;68700;48.534;9.196;2023-05-15T17:02:38;7.77;;;7.07;;
12844;SDS011;68700;48.534;9.196;2023-05-15T17:06:00;7.73;;;6.90;;
12844;SDS011;68700;48.534;9.196;2023-05-15T17:09:22;7.33;;;6.13;;
12844;SDS011;68700;48.534;9.196;2023-05-15T17:12:44;8.10;;;6.90;;
12844;SDS011;68700;48.534;9.196;2023-05-15T17:16:06;6.83;;;6.13;;
12844;SDS011;68700;48.534;9.196;2023-05-15T17:19:31;7.47;;;6.87;;
12844;SDS011;68700;48.534;9.196;2023-05-15T17:22:53;9.70;;;8.80;;
12844;SDS011;68700;48.534;9.196;2023-05-15T17:26:15;9.83;;;8.87;;
12844;SDS011;68700;48.534;9.196;2023-05-15T17:29:37;10.67;;;9.67;;
12844;SDS011;68700;48.534;9.196;2023-05-15T17:32:59;11.37;;;10.20;;
12844;SDS011;68700;48.534;9.196;2023-05-15T17:36:22;10.57;;;9.67;;
12844;SDS011;68700;48.534;9.196;2023-05-15T17:39:44;22.60;;;10.50;;
12844;SDS011;68700;48.534;9.196;2023-05-15T17:43:05;11.40;;;10.37;;
12844;SDS011;68700;48.534;9.196;2023-05-15T17:46:29;11.27;;;10.17;;
12844;SDS011;68700;48.534;9.196;2023-05-15T17:49:51;12.17;;;11.00;;
12844;SDS011;68700;48.534;9.196;2023-05-15T17:53:14;10.90;;;9.63;;
12844;SDS011;68700;48.534;9.196;2023-05-15T17:56:36;10.50;;;9.50;;
12844;SDS011;68700;48.534;9.196;2023-05-15T17:59:57;9.40;;;8.53;;
12844;SDS011;68700;48.534;9.196;2023-05-15T18:03:20;9.63;;;8.63;;
12844;SDS011;68700;48.534;9.196;2023-05-15T18:06:42;9.63;;;8.53;;
12844;SDS011;68700;48.534;9.196;2023-05-15T18:10:06;9.47;;;8.47;;
12844;SDS011;68700;48.534;9.196;2023-05-15T18:13:29;9.00;;;8.20;;
12844;SDS011;68700;48.534;9.196;2023-05-15T18:16:51;8.73;;;7.87;;
12844;SDS011;68700;48.534;9.196;2023-05-15T18:20:14;8.47;;;7.77;;
12844;SDS011;68700;48.534;9.196;2023-05-15T18:23:36;8.50;;;7.70;;
12844;SDS011;68700;48.534;9.196;2023-05-15T18:27:00;8.57;;;7.77;;
12844;SDS011;68700;48.534;9.196;2023-05-15T18:30:22;8.67;;;7.77;;
12844;SDS011;68700;48.534;9.196;2023-05-15T18:33:44;8.87;;;8.07;;
12844;SDS011;68700;48.534;9.196;2023-05-15T18:37:06;8.80;;;7.90;;
12844;SDS011;68700;48.534;9.196;2023-05-15T18:40:28;10.23;;;8.93;;
12844;SDS011;68700;48.534;9.196;2023-05-15T18:43:51;9.60;;;8.70;;
12844;SDS011;68700;48.534;9.196;2023-05-15T18:47:13;10.13;;;9.13;;
12844;SDS011;68700;48.534;9.196;2023-05-15T18:50:35;9.97;;;9.07;;
12844;SDS011;68700;48.534;9.196;2023-05-15T18:53:57;9.37;;;8.47;;
12844;SDS011;68700;48.534;9.196;2023-05-15T18:57:18;10.13;;;9.13;;
12844;SDS011;68700;48.534;9.196;2023-05-15T19:00:42;9.93;;;8.87;;
12844;SDS011;68700;48.534;9.196;2023-05-15T19:04:03;10.37;;;9.40;;
12844;SDS011;68700;48.534;9.196;2023-05-15T19:07:25;10.10;;;9.10;;
12844;SDS011;68700;48.534;9.196;2023-05-15T19:10:49;9.00;;;8.10;;
12844;SDS011;68700;48.534;9.196;2023-05-15T19:14:11;8.67;;;7.80;;
12844;SDS011;68700;48.534;9.196;2023-05-15T19:17:36;13.70;;;9.23;;
12844;SDS011;68700;48.534;9.196;2023-05-15T19:20:57;8.63;;;7.83;;
12844;SDS011;68700;48.534;9.196;2023-05-15T19:24:19;9.37;;;7.77;;
12844;SDS011;68700;48.534;9.196;2023-05-15T19:27:41;8.77;;;7.87;;
12844;SDS011;68700;48.534;9.196;2023-05-15T19:31:03;8.47;;;7.67;;
12844;SDS011;68700;48.534;9.196;2023-05-15T19:34:27;8.33;;;7.53;;
12844;SDS011;68700;48.534;9.196;2023-05-15T19:37:49;10.17;;;8.80;;
12844;SDS011;68700;48.534;9.196;2023-05-15T19:41:10;9.83;;;8.20;;
12844;SDS011;68700;48.534;9.196;2023-05-15T19:44:32;9.73;;;8.40;;
12844;SDS011;68700;48.534;9.196;2023-05-15T19:47:54;9.80;;;8.90;;
12844;SDS011;68700;48.534;9.196;2023-05-15T19:51:17;10.33;;;9.30;;
12844;SDS011;68700;48.534;9.196;2023-05-15T19:54:39;10.30;;;9.20;;
12844;SDS011;68700;48.534;9.196;2023-05-15T19:58:01;10.57;;;9.47;;
12844;SDS011;68700;48.534;9.196;2023-05-15T20:01:23;11.53;;;9.53;;
12844;SDS011;68700;48.534;9.196;2023-05-15T20:04:45;10.93;;;9.93;;
12844;SDS011;68700;48.534;9.196;2023-05-15T20:08:08;10.87;;;9.87;;
12844;SDS011;68700;48.534;9.196;2023-05-15T20:11:31;9.43;;;8.57;;
12844;SDS011;68700;48.534;9.196;2023-05-15T20:14:53;10.27;;;9.37;;
12844;SDS011;68700;48.534;9.196;2023-05-15T20:18:15;10.07;;;9.07;;
12844;SDS011;68700;48.534;9.196;2023-05-15T20:21:37;10.10;;;9.20;;
12844;SDS011;68700;48.534;9.196;2023-05-15T20:25:00;8.87;;;8.07;;
12844;SDS011;68700;48.534;9.196;2023-05-15T20:28:22;9.10;;;7.93;;
12844;SDS011;68700;48.534;9.196;2023-05-15T20:31:44;8.40;;;7.60;;